createdAt,value
2019-05-01T00:03:31.465Z,24.23
2019-05-01T00:08:35.485Z,24.40
2019-05-01T00:13:39.185Z,22.50
2019-05-01T00:18:43.218Z,21.00
2019-05-01T00:23:47.285Z,21.03
2019-05-01T00:28:51.254Z,23.33
2019-05-01T00:33:55.291Z,23.10
2019-05-01T00:38:58.889Z,24.57
2019-05-01T00:44:02.613Z,22.33
2019-05-01T00:49:06.562Z,23.57
2019-05-01T00:54:10.294Z,21.03
2019-05-01T00:59:15.713Z,24.80
2019-05-01T01:04:20.286Z,22.37
2019-05-01T01:09:23.877Z,22.90
2019-05-01T01:14:27.542Z,23.17
2019-05-01T01:19:31.279Z,21.57
2019-05-01T01:24:35.003Z,26.67
2019-05-01T01:29:38.726Z,22.47
2019-05-01T01:34:42.392Z,22.63
2019-05-01T01:39:46.122Z,26.93
2019-05-01T01:44:51.698Z,28.13
2019-05-01T01:49:56.030Z,23.80
2019-05-01T01:55:00.131Z,24.60
2019-05-01T02:00:06.597Z,24.73
2019-05-01T02:05:12.289Z,22.97
2019-05-01T02:10:16.849Z,21.70
2019-05-01T02:15:20.585Z,24.93
2019-05-01T02:20:24.658Z,19.23
2019-05-01T02:25:29.294Z,22.70
2019-05-01T02:30:33.979Z,20.77
2019-05-01T02:35:39.219Z,21.50
2019-05-01T02:40:52.031Z,23.47
2019-05-01T02:45:57.365Z,23.83
2019-05-01T02:51:03.888Z,22.27
2019-05-01T02:56:16.447Z,25.33
2019-05-01T03:01:21.673Z,23.80
2019-05-01T03:06:28.211Z,26.57
2019-05-01T03:11:32.540Z,25.97
2019-05-01T03:16:37.574Z,22.03
2019-05-01T03:21:42.945Z,26.07
2019-05-01T03:26:46.670Z,26.47
2019-05-01T03:32:14.043Z,21.83
2019-05-01T03:36:55.835Z,24.97
2019-05-01T03:41:59.562Z,26.47
2019-05-01T03:47:03.286Z,26.20
2019-05-01T03:52:07.225Z,26.07
2019-05-01T03:57:12.775Z,25.33
2019-05-01T04:02:35.364Z,25.67
2019-05-01T04:07:39.412Z,26.10
2019-05-01T04:12:43.163Z,27.07
2019-05-01T04:17:48.452Z,24.63
2019-05-01T04:22:52.380Z,25.73
2019-05-01T04:27:58.872Z,26.20
2019-05-01T04:33:04.589Z,28.50
2019-05-01T04:38:08.695Z,23.87
2019-05-01T04:43:12.595Z,24.30
2019-05-01T04:48:17.030Z,23.30
2019-05-01T04:53:20.759Z,22.50
2019-05-01T04:58:24.563Z,24.03
2019-05-01T05:03:28.694Z,26.83
2019-05-01T05:08:32.627Z,26.47
2019-05-01T05:13:54.631Z,27.33
2019-05-01T05:18:58.663Z,24.87
2019-05-01T05:24:02.422Z,29.00
2019-05-01T05:29:06.153Z,24.40
2019-05-01T05:34:11.595Z,31.03
2019-05-01T05:39:20.669Z,24.10
2019-05-01T05:44:25.115Z,26.07
2019-05-01T05:49:29.459Z,24.47
2019-05-01T05:54:40.513Z,25.60
2019-05-01T05:59:50.181Z,24.87
2019-05-01T06:05:15.232Z,25.77
2019-05-01T06:10:25.299Z,24.83
2019-05-01T06:15:30.918Z,24.60
2019-05-01T06:20:39.741Z,24.53
2019-05-01T06:25:47.589Z,20.90
2019-05-01T06:30:51.317Z,21.73
2019-05-01T06:35:55.050Z,22.53
2019-05-01T06:41:00.278Z,30.50
2019-05-01T06:46:12.372Z,22.07
2019-05-01T06:51:36.291Z,24.83
2019-05-01T06:56:40.925Z,25.30
2019-05-01T07:01:45.660Z,23.07
2019-05-01T07:06:50.085Z,25.33
2019-05-01T07:11:54.556Z,24.27
2019-05-01T07:16:58.282Z,27.03
2019-05-01T07:22:06.329Z,31.07
2019-05-01T07:27:07.645Z,26.33
2019-05-01T07:32:11.447Z,32.00
2019-05-01T07:37:15.506Z,28.90
2019-05-01T07:42:26.906Z,24.70
2019-05-01T07:47:38.694Z,26.87
2019-05-01T07:52:42.635Z,25.87
2019-05-01T07:57:47.042Z,27.30
2019-05-01T08:02:51.346Z,24.73
2019-05-01T08:07:55.045Z,25.47
2019-05-01T08:13:00.371Z,26.87
2019-05-01T08:18:17.828Z,25.70
2019-05-01T08:23:21.485Z,20.30
2019-05-01T08:28:33.348Z,20.90
2019-05-01T08:33:44.810Z,22.97
2019-05-01T08:38:47.242Z,23.30
2019-05-01T08:43:53.894Z,19.23
2019-05-01T08:49:01.297Z,21.03
2019-05-01T08:54:05.047Z,19.27
2019-05-01T08:59:08.698Z,20.67
2019-05-01T09:04:13.381Z,22.10
2019-05-01T09:09:17.291Z,21.63
2019-05-01T09:14:20.826Z,21.20
2019-05-01T09:19:24.511Z,22.20
2019-05-01T09:24:29.469Z,24.17
2019-05-01T09:29:41.018Z,21.40
2019-05-01T09:34:44.752Z,19.87
2019-05-01T09:39:48.590Z,25.10
2019-05-01T09:44:52.257Z,24.47
2019-05-01T09:49:56.079Z,25.87
2019-05-01T09:55:01.822Z,23.40
2019-05-01T10:00:10.698Z,23.73
2019-05-01T10:05:14.289Z,23.50
2019-05-01T10:10:17.885Z,25.77
2019-05-01T10:15:21.506Z,22.00
2019-05-01T10:20:25.182Z,23.17
2019-05-01T10:25:28.772Z,24.63
2019-05-01T10:30:50.298Z,24.10
2019-05-01T10:36:04.311Z,20.27
2019-05-01T10:41:09.100Z,23.17
2019-05-01T10:46:13.296Z,24.57
2019-05-01T10:51:17.029Z,24.13
2019-05-01T10:56:20.619Z,22.00
2019-05-01T11:01:31.756Z,21.13
2019-05-01T11:06:35.718Z,21.50
2019-05-01T11:11:39.678Z,23.10
2019-05-01T11:16:43.270Z,19.07
2019-05-01T11:21:46.941Z,21.23
2019-05-01T11:26:50.610Z,24.73
2019-05-01T11:32:13.965Z,21.10
2019-05-01T11:37:19.271Z,24.30
2019-05-01T11:42:23.011Z,19.53
2019-05-01T11:47:27.343Z,20.93
2019-05-01T11:52:31.275Z,18.63
2019-05-01T11:57:35.180Z,19.30
2019-05-01T12:02:39.810Z,22.23
2019-05-01T12:07:43.406Z,18.20
2019-05-01T12:12:47.065Z,17.50
2019-05-01T12:17:51.431Z,19.73
2019-05-01T12:22:55.025Z,17.77
2019-05-01T12:27:58.701Z,17.50
2019-05-01T12:33:02.295Z,18.07
2019-05-01T12:38:06.195Z,18.73
2019-05-01T12:43:12.192Z,16.53
2019-05-01T12:48:15.518Z,18.07
2019-05-01T12:53:21.166Z,16.00
2019-05-01T12:58:24.826Z,17.77
2019-05-01T13:03:28.490Z,17.73
2019-05-01T13:08:32.104Z,19.60
2019-05-01T13:13:35.701Z,18.87
2019-05-01T13:18:39.399Z,19.13
2019-05-01T13:23:44.772Z,19.33
2019-05-01T13:29:02.095Z,18.10
2019-05-01T13:34:07.293Z,20.33
2019-05-01T13:39:12.478Z,17.10
2019-05-01T13:44:16.477Z,17.57
2019-05-01T13:49:20.087Z,19.53
2019-05-01T13:54:23.697Z,14.43
2019-05-01T13:59:27.401Z,18.40
2019-05-01T14:04:32.073Z,17.00
2019-05-01T14:09:36.346Z,16.43
2019-05-01T14:14:40.299Z,18.10
2019-05-01T14:19:45.614Z,15.50
2019-05-01T14:24:50.882Z,14.10
2019-05-01T14:29:54.618Z,13.27
2019-05-01T14:34:58.578Z,14.43
2019-05-01T14:40:02.249Z,14.57
2019-05-01T14:45:09.566Z,14.73
2019-05-01T14:50:13.602Z,13.50
2019-05-01T14:55:17.308Z,14.47
2019-05-01T15:00:21.326Z,15.63
2019-05-01T15:05:25.322Z,14.47
2019-05-01T15:10:29.975Z,13.33
2019-05-01T15:15:44.718Z,12.80
2019-05-01T15:20:49.086Z,14.67
2019-05-01T15:25:52.758Z,14.47
2019-05-01T15:30:56.352Z,16.37
2019-05-01T15:35:59.949Z,13.20
2019-05-01T15:41:05.270Z,13.87
2019-05-01T15:46:08.950Z,14.23
2019-05-01T15:51:15.731Z,14.13
2019-05-01T15:56:19.408Z,15.83
2019-05-01T16:01:23.347Z,13.40
2019-05-01T16:06:27.451Z,15.70
2019-05-01T16:11:33.087Z,14.93
2019-05-01T16:16:37.114Z,16.77
2019-05-01T16:21:42.724Z,13.63
2019-05-01T16:26:46.314Z,15.00
2019-05-01T16:31:50.023Z,15.53
2019-05-01T16:36:54.940Z,15.27
2019-05-01T16:41:58.684Z,12.77
2019-05-01T16:47:02.354Z,14.77
2019-05-01T16:52:05.947Z,13.23
2019-05-01T16:57:11.378Z,17.70
2019-05-01T17:02:21.498Z,14.60
2019-05-01T17:07:35.839Z,13.03
2019-05-01T17:12:41.307Z,13.23
2019-05-01T17:17:45.175Z,14.43
2019-05-01T17:22:50.786Z,14.27
2019-05-01T17:27:55.171Z,14.47
2019-05-01T17:33:00.811Z,13.87
2019-05-01T17:38:06.274Z,13.70
2019-05-01T17:43:13.563Z,16.30
2019-05-01T17:48:15.647Z,15.73
2019-05-01T17:53:19.307Z,14.07
2019-05-01T17:58:22.951Z,14.03
2019-05-01T18:03:43.814Z,21.33
2019-05-01T18:08:48.595Z,17.07
2019-05-01T18:13:52.379Z,17.67
2019-05-01T18:18:56.142Z,15.20
2019-05-01T18:24:04.038Z,18.53
2019-05-01T18:29:12.263Z,19.37
2019-05-01T18:34:16.038Z,17.27
2019-05-01T18:39:25.964Z,15.10
2019-05-01T18:44:29.591Z,21.27
2019-05-01T18:49:33.212Z,19.80
2019-05-01T18:54:36.954Z,19.80
2019-05-01T18:59:40.566Z,19.87
2019-05-01T19:04:44.489Z,18.70
2019-05-01T19:09:48.323Z,18.60
2019-05-01T19:14:52.471Z,16.20
2019-05-01T19:19:56.088Z,15.47
2019-05-01T19:24:59.865Z,13.40
2019-05-01T19:30:09.706Z,15.73
2019-05-01T19:35:11.296Z,16.93
2019-05-01T19:40:15.904Z,20.40
2019-05-01T19:45:20.034Z,16.93
2019-05-01T19:50:23.648Z,16.00
2019-05-01T19:55:27.709Z,17.43
2019-05-01T20:00:49.490Z,15.27
2019-05-01T20:05:53.536Z,15.80
2019-05-01T20:10:57.400Z,20.70
2019-05-01T20:16:01.638Z,15.83
2019-05-01T20:21:05.591Z,16.30
2019-05-01T20:26:10.524Z,18.57
2019-05-01T20:31:14.287Z,19.63
2019-05-01T20:36:17.933Z,19.33
2019-05-01T20:41:21.749Z,17.23
2019-05-01T20:46:27.753Z,16.67
2019-05-01T20:51:30.838Z,18.80
2019-05-01T20:56:49.043Z,18.30
2019-05-01T21:01:53.277Z,19.03
2019-05-01T21:07:15.503Z,17.70
2019-05-01T21:12:19.331Z,16.27
2019-05-01T21:17:23.501Z,16.80
2019-05-01T21:22:27.151Z,19.33
2019-05-01T21:27:30.767Z,16.87
2019-05-01T21:32:34.624Z,18.27
2019-05-01T21:37:38.273Z,15.37
2019-05-01T21:42:42.907Z,15.10
2019-05-01T21:47:47.016Z,17.60
2019-05-01T21:52:51.096Z,15.90
2019-05-01T21:57:55.167Z,17.47
2019-05-01T22:02:59.368Z,15.40
2019-05-01T22:08:03.680Z,14.67
2019-05-01T22:13:09.651Z,18.30
2019-05-01T22:18:17.619Z,18.30
2019-05-01T22:23:23.320Z,18.70
2019-05-01T22:28:28.561Z,19.40
2019-05-01T22:33:32.648Z,18.20
2019-05-01T22:38:36.308Z,17.47
2019-05-01T22:43:40.045Z,19.47
2019-05-01T22:48:43.716Z,16.63
2019-05-01T22:53:48.954Z,19.87
2019-05-01T22:58:52.721Z,26.30
2019-05-01T23:04:00.890Z,17.40
2019-05-01T23:09:08.007Z,18.87
2019-05-01T23:14:12.102Z,19.87
2019-05-01T23:19:15.982Z,19.03
2019-05-01T23:24:19.658Z,21.00
2019-05-01T23:29:23.319Z,18.33
2019-05-01T23:34:28.569Z,19.87
2019-05-01T23:39:39.718Z,20.00
2019-05-01T23:44:38.126Z,18.97
2019-05-01T23:49:43.078Z,17.37
2019-05-01T23:54:46.682Z,20.90
2019-05-01T23:59:50.357Z,19.33
